sensor_id;sensor_type;location;lat;lon;timestamp;temperature;humidity
995;DHT22;486;48.726;8.964;2022-08-21T00:02:20;15.10;99.90
995;DHT22;486;48.726;8.964;2022-08-21T00:04:51;15.10;99.90
995;DHT22;486;48.726;8.964;2022-08-21T00:07:23;15.10;99.90
995;DHT22;486;48.726;8.964;2022-08-21T00:09:52;15.00;99.90
995;DHT22;486;48.726;8.964;2022-08-21T00:12:22;15.00;99.90
995;DHT22;486;48.726;8.964;2022-08-21T00:14:51;15.00;99.90
995;DHT22;486;48.726;8.964;2022-08-21T00:17:20;15.00;99.90
995;DHT22;486;48.726;8.964;2022-08-21T00:19:49;15.10;99.90
995;DHT22;486;48.726;8.964;2022-08-21T00:22:18;15.10;99.90
995;DHT22;486;48.726;8.964;2022-08-21T00:24:50;15.00;99.90
995;DHT22;486;48.726;8.964;2022-08-21T00:27:19;15.00;99.90
995;DHT22;486;48.726;8.964;2022-08-21T00:29:48;15.00;99.90
995;DHT22;486;48.726;8.964;2022-08-21T00:32:21;15.00;99.90
995;DHT22;486;48.726;8.964;2022-08-21T00:34:51;14.90;99.90
995;DHT22;486;48.726;8.964;2022-08-21T00:37:20;14.90;99.90
995;DHT22;486;48.726;8.964;2022-08-21T00:39:52;14.80;99.90
995;DHT22;486;48.726;8.964;2022-08-21T00:42:21;14.80;99.90
995;DHT22;486;48.726;8.964;2022-08-21T00:44:50;14.80;99.90
995;DHT22;486;48.726;8.964;2022-08-21T00:47:20;14.70;99.90
995;DHT22;486;48.726;8.964;2022-08-21T00:49:49;14.70;99.90
995;DHT22;486;48.726;8.964;2022-08-21T00:52:22;14.60;99.90
995;DHT22;486;48.726;8.964;2022-08-21T00:54:59;14.60;99.90
995;DHT22;486;48.726;8.964;2022-08-21T00:57:39;14.60;99.90
995;DHT22;486;48.726;8.964;2022-08-21T01:00:15;14.60;99.90
995;DHT22;486;48.726;8.964;2022-08-21T01:02:46;14.50;99.90
995;DHT22;486;48.726;8.964;2022-08-21T01:05:15;14.50;99.90
995;DHT22;486;48.726;8.964;2022-08-21T01:07:44;14.50;99.90
995;DHT22;486;48.726;8.964;2022-08-21T01:10:17;14.50;99.90
995;DHT22;486;48.726;8.964;2022-08-21T01:12:46;14.50;99.90
995;DHT22;486;48.726;8.964;2022-08-21T01:15:17;14.50;99.90
995;DHT22;486;48.726;8.964;2022-08-21T01:17:48;14.50;99.90
995;DHT22;486;48.726;8.964;2022-08-21T01:20:18;14.50;99.90
995;DHT22;486;48.726;8.964;2022-08-21T01:22:49;14.50;99.90
995;DHT22;486;48.726;8.964;2022-08-21T01:25:19;14.40;99.90
995;DHT22;486;48.726;8.964;2022-08-21T01:27:48;14.40;99.90
995;DHT22;486;48.726;8.964;2022-08-21T01:30:21;14.30;99.90
995;DHT22;486;48.726;8.964;2022-08-21T01:32:53;14.30;99.90
995;DHT22;486;48.726;8.964;2022-08-21T01:35:23;14.30;99.90
995;DHT22;486;48.726;8.964;2022-08-21T01:37:54;14.30;99.90
995;DHT22;486;48.726;8.964;2022-08-21T01:40:23;14.20;99.90
995;DHT22;486;48.726;8.964;2022-08-21T01:42:53;14.20;99.90
995;DHT22;486;48.726;8.964;2022-08-21T01:45:22;14.20;99.90
995;DHT22;486;48.726;8.964;2022-08-21T01:47:51;14.20;99.90
995;DHT22;486;48.726;8.964;2022-08-21T01:50:20;14.10;99.90
995;DHT22;486;48.726;8.964;2022-08-21T01:52:50;14.00;99.90
995;DHT22;486;48.726;8.964;2022-08-21T01:55:22;14.10;99.90
995;DHT22;486;48.726;8.964;2022-08-21T01:57:52;14.10;99.90
995;DHT22;486;48.726;8.964;2022-08-21T02:00:22;14.00;99.90
995;DHT22;486;48.726;8.964;2022-08-21T02:02:52;14.00;99.90
995;DHT22;486;48.726;8.964;2022-08-21T02:05:21;14.00;99.90
995;DHT22;486;48.726;8.964;2022-08-21T02:07:54;13.90;99.90
995;DHT22;486;48.726;8.964;2022-08-21T02:10:25;13.90;99.90
995;DHT22;486;48.726;8.964;2022-08-21T02:12:57;13.80;99.90
995;DHT22;486;48.726;8.964;2022-08-21T02:15:28;13.80;99.90
995;DHT22;486;48.726;8.964;2022-08-21T02:18:00;13.80;99.90
995;DHT22;486;48.726;8.964;2022-08-21T02:20:32;13.80;99.90
995;DHT22;486;48.726;8.964;2022-08-21T02:23:06;13.90;99.90
995;DHT22;486;48.726;8.964;2022-08-21T02:25:37;13.90;99.90
995;DHT22;486;48.726;8.964;2022-08-21T02:28:08;13.90;99.90
995;DHT22;486;48.726;8.964;2022-08-21T02:30:41;13.80;99.90
995;DHT22;486;48.726;8.964;2022-08-21T02:33:12;13.80;99.90
995;DHT22;486;48.726;8.964;2022-08-21T02:35:42;13.70;99.90
995;DHT22;486;48.726;8.964;2022-08-21T02:38:17;13.70;99.90
995;DHT22;486;48.726;8.964;2022-08-21T02:40:50;13.70;99.90
995;DHT22;486;48.726;8.964;2022-08-21T02:43:21;13.60;99.90
995;DHT22;486;48.726;8.964;2022-08-21T02:45:53;13.60;99.90
995;DHT22;486;48.726;8.964;2022-08-21T02:48:25;13.60;99.90
995;DHT22;486;48.726;8.964;2022-08-21T02:50:57;13.50;99.90
995;DHT22;486;48.726;8.964;2022-08-21T02:53:31;13.60;99.90
995;DHT22;486;48.726;8.964;2022-08-21T02:56:04;13.60;99.90
995;DHT22;486;48.726;8.964;2022-08-21T02:58:39;13.60;99.90
995;DHT22;486;48.726;8.964;2022-08-21T03:01:11;13.50;99.90
995;DHT22;486;48.726;8.964;2022-08-21T03:03:42;13.50;99.90
995;DHT22;486;48.726;8.964;2022-08-21T03:06:16;13.60;99.90
995;DHT22;486;48.726;8.964;2022-08-21T03:08:49;13.60;99.90
995;DHT22;486;48.726;8.964;2022-08-21T03:11:18;13.60;99.90
995;DHT22;486;48.726;8.964;2022-08-21T03:13:48;13.50;99.90
995;DHT22;486;48.726;8.964;2022-08-21T03:16:17;13.50;99.90
995;DHT22;486;48.726;8.964;2022-08-21T03:18:46;13.40;99.90
995;DHT22;486;48.726;8.964;2022-08-21T03:21:15;13.40;99.90
995;DHT22;486;48.726;8.964;2022-08-21T03:23:44;13.50;99.90
995;DHT22;486;48.726;8.964;2022-08-21T03:26:16;13.40;99.90
995;DHT22;486;48.726;8.964;2022-08-21T03:28:45;13.30;99.90
995;DHT22;486;48.726;8.964;2022-08-21T03:31:14;13.30;99.90
995;DHT22;486;48.726;8.964;2022-08-21T03:33:44;13.30;99.90
995;DHT22;486;48.726;8.964;2022-08-21T03:36:13;13.30;99.90
995;DHT22;486;48.726;8.964;2022-08-21T03:38:42;13.20;99.90
995;DHT22;486;48.726;8.964;2022-08-21T03:41:11;13.20;99.90
995;DHT22;486;48.726;8.964;2022-08-21T03:43:43;13.20;99.90
995;DHT22;486;48.726;8.964;2022-08-21T03:46:12;13.20;99.90
995;DHT22;486;48.726;8.964;2022-08-21T03:48:41;13.20;99.90
995;DHT22;486;48.726;8.964;2022-08-21T03:51:10;13.20;99.90
995;DHT22;486;48.726;8.964;2022-08-21T03:53:39;13.20;99.90
995;DHT22;486;48.726;8.964;2022-08-21T03:56:08;13.10;99.90
995;DHT22;486;48.726;8.964;2022-08-21T03:58:37;13.10;99.90
995;DHT22;486;48.726;8.964;2022-08-21T04:01:09;13.00;99.90
995;DHT22;486;48.726;8.964;2022-08-21T04:03:38;13.00;99.90
995;DHT22;486;48.726;8.964;2022-08-21T04:06:08;13.00;99.90
995;DHT22;486;48.726;8.964;2022-08-21T04:08:37;13.00;99.90
995;DHT22;486;48.726;8.964;2022-08-21T04:11:08;13.00;99.90
995;DHT22;486;48.726;8.964;2022-08-21T04:13:38;13.00;99.90
995;DHT22;486;48.726;8.964;2022-08-21T04:16:11;13.00;99.90
995;DHT22;486;48.726;8.964;2022-08-21T04:18:40;13.00;99.90
995;DHT22;486;48.726;8.964;2022-08-21T04:21:11;13.00;99.90
995;DHT22;486;48.726;8.964;2022-08-21T04:23:40;12.90;99.90
995;DHT22;486;48.726;8.964;2022-08-21T04:26:09;13.00;99.90
995;DHT22;486;48.726;8.964;2022-08-21T04:28:39;13.00;99.90
995;DHT22;486;48.726;8.964;2022-08-21T04:31:10;13.00;99.90
995;DHT22;486;48.726;8.964;2022-08-21T04:33:40;13.00;99.90
995;DHT22;486;48.726;8.964;2022-08-21T04:36:10;13.00;99.90
995;DHT22;486;48.726;8.964;2022-08-21T04:38:39;12.90;99.90
995;DHT22;486;48.726;8.964;2022-08-21T04:41:08;12.90;99.90
995;DHT22;486;48.726;8.964;2022-08-21T04:43:37;12.90;99.90
995;DHT22;486;48.726;8.964;2022-08-21T04:46:09;13.00;99.90
995;DHT22;486;48.726;8.964;2022-08-21T04:48:38;12.90;99.90
995;DHT22;486;48.726;8.964;2022-08-21T04:51:11;13.00;99.90
995;DHT22;486;48.726;8.964;2022-08-21T04:53:44;13.00;99.90
995;DHT22;486;48.726;8.964;2022-08-21T04:56:20;12.90;99.90
995;DHT22;486;48.726;8.964;2022-08-21T04:58:53;13.00;99.90
995;DHT22;486;48.726;8.964;2022-08-21T05:01:29;13.00;99.90
995;DHT22;486;48.726;8.964;2022-08-21T05:04:01;13.00;99.90
995;DHT22;486;48.726;8.964;2022-08-21T05:06:35;13.00;99.90
995;DHT22;486;48.726;8.964;2022-08-21T05:09:06;13.00;99.90
995;DHT22;486;48.726;8.964;2022-08-21T05:11:35;13.10;99.90
995;DHT22;486;48.726;8.964;2022-08-21T05:14:05;13.10;99.90
995;DHT22;486;48.726;8.964;2022-08-21T05:16:37;13.10;99.90
995;DHT22;486;48.726;8.964;2022-08-21T05:19:06;13.20;99.90
995;DHT22;486;48.726;8.964;2022-08-21T05:21:42;13.30;99.90
995;DHT22;486;48.726;8.964;2022-08-21T05:24:13;13.40;99.90
995;DHT22;486;48.726;8.964;2022-08-21T05:26:43;13.40;99.90
995;DHT22;486;48.726;8.964;2022-08-21T05:29:14;13.50;99.90
995;DHT22;486;48.726;8.964;2022-08-21T05:31:47;13.50;99.90
995;DHT22;486;48.726;8.964;2022-08-21T05:34:20;13.60;99.90
995;DHT22;486;48.726;8.964;2022-08-21T06:14:16;15.00;99.90
995;DHT22;486;48.726;8.964;2022-08-21T06:16:45;15.00;99.90
995;DHT22;486;48.726;8.964;2022-08-21T06:19:17;15.10;99.90
995;DHT22;486;48.726;8.964;2022-08-21T06:21:46;15.30;99.90
995;DHT22;486;48.726;8.964;2022-08-21T06:24:15;15.40;99.90
995;DHT22;486;48.726;8.964;2022-08-21T06:26:44;15.60;99.90
995;DHT22;486;48.726;8.964;2022-08-21T06:29:13;15.60;99.90
995;DHT22;486;48.726;8.964;2022-08-21T06:31:43;15.90;99.90
995;DHT22;486;48.726;8.964;2022-08-21T06:34:12;16.00;99.90
995;DHT22;486;48.726;8.964;2022-08-21T06:36:44;16.10;99.90
995;DHT22;486;48.726;8.964;2022-08-21T06:39:13;16.20;99.90
995;DHT22;486;48.726;8.964;2022-08-21T06:41:43;16.40;99.90
995;DHT22;486;48.726;8.964;2022-08-21T06:44:12;16.60;99.90
995;DHT22;486;48.726;8.964;2022-08-21T06:46:41;16.70;99.90
995;DHT22;486;48.726;8.964;2022-08-21T06:49:10;16.90;99.90
995;DHT22;486;48.726;8.964;2022-08-21T06:51:41;17.10;99.90
995;DHT22;486;48.726;8.964;2022-08-21T06:54:10;17.30;99.90
995;DHT22;486;48.726;8.964;2022-08-21T06:56:39;17.40;99.90
995;DHT22;486;48.726;8.964;2022-08-21T06:59:08;17.60;99.90
995;DHT22;486;48.726;8.964;2022-08-21T07:01:37;17.70;99.90
995;DHT22;486;48.726;8.964;2022-08-21T07:04:06;17.80;99.90
995;DHT22;486;48.726;8.964;2022-08-21T07:06:36;17.90;99.90
995;DHT22;486;48.726;8.964;2022-08-21T07:09:07;18.10;99.90
995;DHT22;486;48.726;8.964;2022-08-21T07:11:37;18.30;99.90
995;DHT22;486;48.726;8.964;2022-08-21T07:14:06;18.50;99.90
995;DHT22;486;48.726;8.964;2022-08-21T07:16:35;18.50;99.90
995;DHT22;486;48.726;8.964;2022-08-21T07:19:04;18.70;99.90
995;DHT22;486;48.726;8.964;2022-08-21T07:21:33;18.80;99.90
995;DHT22;486;48.726;8.964;2022-08-21T07:24:02;18.90;99.90
995;DHT22;486;48.726;8.964;2022-08-21T07:26:34;19.10;99.90
995;DHT22;486;48.726;8.964;2022-08-21T07:29:04;19.40;99.90
995;DHT22;486;48.726;8.964;2022-08-21T07:31:33;19.70;99.90
995;DHT22;486;48.726;8.964;2022-08-21T07:34:02;19.80;99.90
995;DHT22;486;48.726;8.964;2022-08-21T07:36:31;20.00;99.90
995;DHT22;486;48.726;8.964;2022-08-21T07:39:00;20.10;99.90
995;DHT22;486;48.726;8.964;2022-08-21T07:41:30;20.30;99.90
995;DHT22;486;48.726;8.964;2022-08-21T07:44:02;20.50;99.90
995;DHT22;486;48.726;8.964;2022-08-21T07:46:32;20.70;99.90
995;DHT22;486;48.726;8.964;2022-08-21T07:49:01;20.90;99.90
995;DHT22;486;48.726;8.964;2022-08-21T07:51:30;21.10;99.90
995;DHT22;486;48.726;8.964;2022-08-21T07:54:00;21.30;99.90
995;DHT22;486;48.726;8.964;2022-08-21T07:56:30;21.20;99.20
995;DHT22;486;48.726;8.964;2022-08-21T07:59:02;21.20;99.70
995;DHT22;486;48.726;8.964;2022-08-21T08:01:31;21.50;99.70
995;DHT22;486;48.726;8.964;2022-08-21T08:04:00;21.70;99.20
995;DHT22;486;48.726;8.964;2022-08-21T08:06:29;21.80;98.70
995;DHT22;486;48.726;8.964;2022-08-21T08:08:58;22.00;97.00
995;DHT22;486;48.726;8.964;2022-08-21T08:11:29;22.20;95.90
995;DHT22;486;48.726;8.964;2022-08-21T08:14:01;22.20;94.90
995;DHT22;486;48.726;8.964;2022-08-21T08:16:31;22.30;95.50
995;DHT22;486;48.726;8.964;2022-08-21T08:19:00;22.50;94.80
995;DHT22;486;48.726;8.964;2022-08-21T08:21:29;22.60;93.20
995;DHT22;486;48.726;8.964;2022-08-21T08:23:59;22.50;92.80
995;DHT22;486;48.726;8.964;2022-08-21T08:26:28;22.50;93.00
995;DHT22;486;48.726;8.964;2022-08-21T08:28:57;22.50;92.60
995;DHT22;486;48.726;8.964;2022-08-21T08:31:29;22.50;92.50
995;DHT22;486;48.726;8.964;2022-08-21T08:33:58;22.70;93.00
995;DHT22;486;48.726;8.964;2022-08-21T08:36:33;22.80;91.90
995;DHT22;486;48.726;8.964;2022-08-21T08:39:04;22.90;92.40
995;DHT22;486;48.726;8.964;2022-08-21T08:41:33;23.00;91.20
995;DHT22;486;48.726;8.964;2022-08-21T08:44:05;23.20;91.20
995;DHT22;486;48.726;8.964;2022-08-21T08:46:40;23.40;90.10
995;DHT22;486;48.726;8.964;2022-08-21T08:49:16;23.20;89.20
995;DHT22;486;48.726;8.964;2022-08-21T08:51:53;23.20;88.80
995;DHT22;486;48.726;8.964;2022-08-21T08:54:28;23.40;88.70
995;DHT22;486;48.726;8.964;2022-08-21T08:56:58;23.30;88.60
995;DHT22;486;48.726;8.964;2022-08-21T08:59:35;23.30;85.00
995;DHT22;486;48.726;8.964;2022-08-21T09:02:13;23.30;85.40
995;DHT22;486;48.726;8.964;2022-08-21T09:04:44;23.40;86.00
995;DHT22;486;48.726;8.964;2022-08-21T09:07:20;23.70;84.80
995;DHT22;486;48.726;8.964;2022-08-21T09:10:04;23.70;84.80
995;DHT22;486;48.726;8.964;2022-08-21T09:12:51;23.60;82.50
995;DHT22;486;48.726;8.964;2022-08-21T09:15:28;23.30;84.70
995;DHT22;486;48.726;8.964;2022-08-21T09:18:19;23.60;85.10
995;DHT22;486;48.726;8.964;2022-08-21T09:21:05;23.70;83.30
995;DHT22;486;48.726;8.964;2022-08-21T09:23:46;23.80;82.50
995;DHT22;486;48.726;8.964;2022-08-21T09:26:20;24.00;83.10
995;DHT22;486;48.726;8.964;2022-08-21T09:28:54;24.20;82.20
995;DHT22;486;48.726;8.964;2022-08-21T09:31:32;24.30;80.20
995;DHT22;486;48.726;8.964;2022-08-21T09:34:08;24.30;78.80
995;DHT22;486;48.726;8.964;2022-08-21T09:36:41;24.50;79.60
995;DHT22;486;48.726;8.964;2022-08-21T09:39:21;24.80;79.00
995;DHT22;486;48.726;8.964;2022-08-21T09:41:57;24.90;77.10
995;DHT22;486;48.726;8.964;2022-08-21T09:44:28;24.90;75.80
995;DHT22;486;48.726;8.964;2022-08-21T09:46:59;24.90;74.90
995;DHT22;486;48.726;8.964;2022-08-21T09:49:35;24.90;73.30
995;DHT22;486;48.726;8.964;2022-08-21T09:52:16;24.80;72.90
995;DHT22;486;48.726;8.964;2022-08-21T09:54:52;24.90;73.50
995;DHT22;486;48.726;8.964;2022-08-21T09:57:25;24.80;73.30
995;DHT22;486;48.726;8.964;2022-08-21T10:00:10;25.00;75.10
995;DHT22;486;48.726;8.964;2022-08-21T10:02:48;24.90;72.70
995;DHT22;486;48.726;8.964;2022-08-21T10:05:25;24.90;72.10
995;DHT22;486;48.726;8.964;2022-08-21T10:07:55;24.90;71.70
995;DHT22;486;48.726;8.964;2022-08-21T10:10:28;25.00;71.40
995;DHT22;486;48.726;8.964;2022-08-21T10:13:01;24.90;70.40
995;DHT22;486;48.726;8.964;2022-08-21T10:15:43;24.80;71.20
995;DHT22;486;48.726;8.964;2022-08-21T10:18:22;24.90;73.00
995;DHT22;486;48.726;8.964;2022-08-21T10:21:02;25.20;73.20
995;DHT22;486;48.726;8.964;2022-08-21T10:23:41;25.50;70.80
995;DHT22;486;48.726;8.964;2022-08-21T10:26:25;25.70;68.40
995;DHT22;486;48.726;8.964;2022-08-21T10:29:06;25.70;68.80
995;DHT22;486;48.726;8.964;2022-08-21T10:31:46;25.70;68.50
995;DHT22;486;48.726;8.964;2022-08-21T10:34:33;25.80;70.10
995;DHT22;486;48.726;8.964;2022-08-21T10:37:18;26.00;68.40
995;DHT22;486;48.726;8.964;2022-08-21T10:40:00;26.10;67.90
995;DHT22;486;48.726;8.964;2022-08-21T10:42:41;26.20;68.80
995;DHT22;486;48.726;8.964;2022-08-21T10:45:32;26.20;66.70
995;DHT22;486;48.726;8.964;2022-08-21T10:48:06;26.10;67.80
995;DHT22;486;48.726;8.964;2022-08-21T10:50:42;26.20;67.90
995;DHT22;486;48.726;8.964;2022-08-21T10:53:30;26.30;67.70
995;DHT22;486;48.726;8.964;2022-08-21T10:56:13;26.40;69.30
995;DHT22;486;48.726;8.964;2022-08-21T10:58:51;26.40;65.70
995;DHT22;486;48.726;8.964;2022-08-21T11:01:32;26.30;65.60
995;DHT22;486;48.726;8.964;2022-08-21T11:04:12;26.40;67.20
995;DHT22;486;48.726;8.964;2022-08-21T11:06:48;26.30;65.90
995;DHT22;486;48.726;8.964;2022-08-21T11:09:24;26.10;66.60
995;DHT22;486;48.726;8.964;2022-08-21T11:11:57;26.30;64.70
995;DHT22;486;48.726;8.964;2022-08-21T11:14:36;26.50;67.40
995;DHT22;486;48.726;8.964;2022-08-21T11:17:10;26.60;66.70
995;DHT22;486;48.726;8.964;2022-08-21T11:19:45;26.70;65.70
995;DHT22;486;48.726;8.964;2022-08-21T11:22:19;26.90;64.50
995;DHT22;486;48.726;8.964;2022-08-21T11:25:03;27.00;62.00
995;DHT22;486;48.726;8.964;2022-08-21T11:27:41;27.10;63.20
995;DHT22;486;48.726;8.964;2022-08-21T11:30:13;27.10;60.80
995;DHT22;486;48.726;8.964;2022-08-21T11:32:58;26.90;60.80
995;DHT22;486;48.726;8.964;2022-08-21T11:35:36;26.80;61.80
995;DHT22;486;48.726;8.964;2022-08-21T11:38:21;26.70;61.80
995;DHT22;486;48.726;8.964;2022-08-21T11:41:23;26.80;62.50
995;DHT22;486;48.726;8.964;2022-08-21T11:44:10;27.10;62.00
995;DHT22;486;48.726;8.964;2022-08-21T11:46:49;27.20;59.40
995;DHT22;486;48.726;8.964;2022-08-21T11:49:39;27.10;59.50
995;DHT22;486;48.726;8.964;2022-08-21T11:52:18;27.00;62.60
995;DHT22;486;48.726;8.964;2022-08-21T11:54:54;27.00;61.10
995;DHT22;486;48.726;8.964;2022-08-21T11:57:31;27.20;59.20
995;DHT22;486;48.726;8.964;2022-08-21T12:00:06;27.10;59.10
995;DHT22;486;48.726;8.964;2022-08-21T12:02:45;27.20;57.90
995;DHT22;486;48.726;8.964;2022-08-21T12:05:26;27.40;58.30
995;DHT22;486;48.726;8.964;2022-08-21T12:08:05;27.60;56.80
995;DHT22;486;48.726;8.964;2022-08-21T12:10:38;27.70;56.30
995;DHT22;486;48.726;8.964;2022-08-21T12:13:25;27.70;55.60
995;DHT22;486;48.726;8.964;2022-08-21T12:16:06;27.70;54.40
995;DHT22;486;48.726;8.964;2022-08-21T12:18:36;27.60;53.70
995;DHT22;486;48.726;8.964;2022-08-21T12:21:19;27.90;54.80
995;DHT22;486;48.726;8.964;2022-08-21T12:24:01;27.80;54.00
995;DHT22;486;48.726;8.964;2022-08-21T12:26:34;27.70;54.40
995;DHT22;486;48.726;8.964;2022-08-21T12:29:12;27.60;53.90
995;DHT22;486;48.726;8.964;2022-08-21T12:31:50;27.80;53.60
995;DHT22;486;48.726;8.964;2022-08-21T12:34:31;27.80;54.00
995;DHT22;486;48.726;8.964;2022-08-21T12:37:05;27.90;53.20
995;DHT22;486;48.726;8.964;2022-08-21T12:39:38;28.10;53.90
995;DHT22;486;48.726;8.964;2022-08-21T12:42:17;28.40;55.30
995;DHT22;486;48.726;8.964;2022-08-21T12:44:54;28.70;54.30
995;DHT22;486;48.726;8.964;2022-08-21T12:47:31;28.80;54.40
995;DHT22;486;48.726;8.964;2022-08-21T12:50:05;29.30;52.70
995;DHT22;486;48.726;8.964;2022-08-21T12:52:41;29.40;53.20
995;DHT22;486;48.726;8.964;2022-08-21T12:55:15;29.60;55.20
995;DHT22;486;48.726;8.964;2022-08-21T12:57:53;30.00;54.80
995;DHT22;486;48.726;8.964;2022-08-21T13:00:27;30.20;54.40
995;DHT22;486;48.726;8.964;2022-08-21T13:02:57;30.30;53.00
995;DHT22;486;48.726;8.964;2022-08-21T13:05:32;30.50;52.80
995;DHT22;486;48.726;8.964;2022-08-21T13:08:05;30.60;55.10
995;DHT22;486;48.726;8.964;2022-08-21T13:10:36;30.80;51.60
995;DHT22;486;48.726;8.964;2022-08-21T13:13:09;30.20;50.10
995;DHT22;486;48.726;8.964;2022-08-21T13:15:44;29.50;53.10
995;DHT22;486;48.726;8.964;2022-08-21T13:18:21;29.10;52.60
995;DHT22;486;48.726;8.964;2022-08-21T13:21:01;28.80;53.00
995;DHT22;486;48.726;8.964;2022-08-21T13:23:32;28.50;52.40
995;DHT22;486;48.726;8.964;2022-08-21T13:26:02;28.40;55.00
995;DHT22;486;48.726;8.964;2022-08-21T13:28:40;28.60;57.50
995;DHT22;486;48.726;8.964;2022-08-21T13:31:18;28.60;55.50
995;DHT22;486;48.726;8.964;2022-08-21T13:33:49;28.30;55.10
995;DHT22;486;48.726;8.964;2022-08-21T13:36:21;28.10;56.50
995;DHT22;486;48.726;8.964;2022-08-21T13:38:54;28.30;55.80
995;DHT22;486;48.726;8.964;2022-08-21T13:41:25;29.00;55.70
995;DHT22;486;48.726;8.964;2022-08-21T13:43:58;29.40;55.80
995;DHT22;486;48.726;8.964;2022-08-21T13:46:34;29.40;56.00
995;DHT22;486;48.726;8.964;2022-08-21T13:49:05;29.20;55.40
995;DHT22;486;48.726;8.964;2022-08-21T13:51:36;28.60;57.90
995;DHT22;486;48.726;8.964;2022-08-21T13:54:15;28.60;56.60
995;DHT22;486;48.726;8.964;2022-08-21T13:56:49;29.40;56.10
995;DHT22;486;48.726;8.964;2022-08-21T13:59:27;29.40;55.50
995;DHT22;486;48.726;8.964;2022-08-21T14:02:07;29.30;54.90
995;DHT22;486;48.726;8.964;2022-08-21T14:04:42;28.90;53.60
995;DHT22;486;48.726;8.964;2022-08-21T14:07:19;28.60;55.60
995;DHT22;486;48.726;8.964;2022-08-21T14:09:51;28.40;53.70
995;DHT22;486;48.726;8.964;2022-08-21T14:12:26;28.10;54.60
995;DHT22;486;48.726;8.964;2022-08-21T14:14:57;28.00;55.40
995;DHT22;486;48.726;8.964;2022-08-21T14:17:31;27.90;56.40
995;DHT22;486;48.726;8.964;2022-08-21T14:20:04;27.70;56.70
995;DHT22;486;48.726;8.964;2022-08-21T14:22:38;27.80;57.70
995;DHT22;486;48.726;8.964;2022-08-21T14:25:13;27.90;56.70
995;DHT22;486;48.726;8.964;2022-08-21T14:27:57;29.10;55.70
995;DHT22;486;48.726;8.964;2022-08-21T14:30:29;29.80;53.80
995;DHT22;486;48.726;8.964;2022-08-21T14:33:07;29.90;51.50
995;DHT22;486;48.726;8.964;2022-08-21T14:35:38;31.00;50.10
995;DHT22;486;48.726;8.964;2022-08-21T14:38:12;32.10;48.70
995;DHT22;486;48.726;8.964;2022-08-21T14:40:43;33.30;47.80
995;DHT22;486;48.726;8.964;2022-08-21T14:43:13;34.70;44.80
995;DHT22;486;48.726;8.964;2022-08-21T14:45:42;35.30;42.70
995;DHT22;486;48.726;8.964;2022-08-21T14:48:14;36.00;39.90
995;DHT22;486;48.726;8.964;2022-08-21T14:50:43;35.90;39.20
995;DHT22;486;48.726;8.964;2022-08-21T20:12:07;35.50;39.80
995;DHT22;486;48.726;8.964;2022-08-21T20:14:41;20.80;74.30
995;DHT22;486;48.726;8.964;2022-08-21T20:17:14;20.50;74.50
995;DHT22;486;48.726;8.964;2022-08-21T20:19:46;20.40;74.50
995;DHT22;486;48.726;8.964;2022-08-21T20:22:15;20.30;75.10
995;DHT22;486;48.726;8.964;2022-08-21T20:24:45;20.30;77.00
995;DHT22;486;48.726;8.964;2022-08-21T20:27:20;20.30;76.50
995;DHT22;486;48.726;8.964;2022-08-21T20:29:50;20.30;75.90
995;DHT22;486;48.726;8.964;2022-08-21T20:32:19;20.20;74.60
995;DHT22;486;48.726;8.964;2022-08-21T20:34:49;20.20;76.90
995;DHT22;486;48.726;8.964;2022-08-21T20:37:18;20.10;75.10
995;DHT22;486;48.726;8.964;2022-08-21T20:39:47;20.10;74.90
995;DHT22;486;48.726;8.964;2022-08-21T20:42:19;20.20;77.40
995;DHT22;486;48.726;8.964;2022-08-21T20:44:48;20.00;81.30
995;DHT22;486;48.726;8.964;2022-08-21T20:47:17;19.90;79.00
995;DHT22;486;48.726;8.964;2022-08-21T20:49:50;19.70;81.20
995;DHT22;486;48.726;8.964;2022-08-21T20:52:24;19.60;82.70
995;DHT22;486;48.726;8.964;2022-08-21T20:54:58;19.60;83.90
995;DHT22;486;48.726;8.964;2022-08-21T20:57:37;19.60;85.30
995;DHT22;486;48.726;8.964;2022-08-21T21:00:13;19.60;86.60
995;DHT22;486;48.726;8.964;2022-08-21T21:02:48;19.60;87.70
995;DHT22;486;48.726;8.964;2022-08-21T21:05:22;19.50;85.70
995;DHT22;486;48.726;8.964;2022-08-21T21:07:58;19.30;87.90
995;DHT22;486;48.726;8.964;2022-08-21T21:10:35;19.20;90.30
995;DHT22;486;48.726;8.964;2022-08-21T21:13:14;19.10;90.10
995;DHT22;486;48.726;8.964;2022-08-21T21:15:52;19.10;90.70
995;DHT22;486;48.726;8.964;2022-08-21T21:18:31;18.90;92.10
995;DHT22;486;48.726;8.964;2022-08-21T21:21:06;18.80;91.80
995;DHT22;486;48.726;8.964;2022-08-21T21:23:41;18.60;92.00
995;DHT22;486;48.726;8.964;2022-08-21T21:26:17;18.50;92.60
995;DHT22;486;48.726;8.964;2022-08-21T21:28:55;18.40;94.90
995;DHT22;486;48.726;8.964;2022-08-21T21:31:28;18.40;95.40
995;DHT22;486;48.726;8.964;2022-08-21T21:33:57;18.40;95.80
995;DHT22;486;48.726;8.964;2022-08-21T21:36:36;18.30;96.10
995;DHT22;486;48.726;8.964;2022-08-21T21:39:16;18.20;95.80
995;DHT22;486;48.726;8.964;2022-08-21T21:41:56;18.10;96.80
995;DHT22;486;48.726;8.964;2022-08-21T21:44:38;18.00;98.10
995;DHT22;486;48.726;8.964;2022-08-21T21:47:29;18.00;98.40
995;DHT22;486;48.726;8.964;2022-08-21T21:50:16;17.90;98.80
995;DHT22;486;48.726;8.964;2022-08-21T21:53:01;17.90;99.10
995;DHT22;486;48.726;8.964;2022-08-21T21:55:46;17.80;98.60
995;DHT22;486;48.726;8.964;2022-08-21T21:58:35;17.80;98.40
995;DHT22;486;48.726;8.964;2022-08-21T22:01:17;17.80;99.40
995;DHT22;486;48.726;8.964;2022-08-21T22:04:01;17.70;99.80
995;DHT22;486;48.726;8.964;2022-08-21T22:06:41;17.60;99.80
995;DHT22;486;48.726;8.964;2022-08-21T22:09:19;17.70;99.90
995;DHT22;486;48.726;8.964;2022-08-21T22:11:57;17.60;99.90
995;DHT22;486;48.726;8.964;2022-08-21T22:14:34;17.60;99.90
995;DHT22;486;48.726;8.964;2022-08-21T22:17:30;17.50;99.90
995;DHT22;486;48.726;8.964;2022-08-21T22:20:06;17.40;99.90
995;DHT22;486;48.726;8.964;2022-08-21T22:22:41;17.40;99.90
995;DHT22;486;48.726;8.964;2022-08-21T22:25:16;17.40;99.90
995;DHT22;486;48.726;8.964;2022-08-21T22:27:54;17.30;99.90
995;DHT22;486;48.726;8.964;2022-08-21T22:30:41;17.30;99.90
995;DHT22;486;48.726;8.964;2022-08-21T22:33:17;17.20;99.90
995;DHT22;486;48.726;8.964;2022-08-21T22:35:48;17.10;99.90
995;DHT22;486;48.726;8.964;2022-08-21T22:38:28;17.10;99.90
995;DHT22;486;48.726;8.964;2022-08-21T22:41:13;17.00;99.90
995;DHT22;486;48.726;8.964;2022-08-21T22:43:51;16.90;99.90
995;DHT22;486;48.726;8.964;2022-08-21T22:46:29;16.90;99.90
995;DHT22;486;48.726;8.964;2022-08-21T22:49:06;16.90;99.90
995;DHT22;486;48.726;8.964;2022-08-21T22:51:42;16.90;99.90
995;DHT22;486;48.726;8.964;2022-08-21T22:54:21;16.80;99.90
995;DHT22;486;48.726;8.964;2022-08-21T22:57:00;16.80;99.90
995;DHT22;486;48.726;8.964;2022-08-21T22:59:34;16.80;99.90
995;DHT22;486;48.726;8.964;2022-08-21T23:02:17;16.70;99.90
995;DHT22;486;48.726;8.964;2022-08-21T23:04:58;16.70;99.90
995;DHT22;486;48.726;8.964;2022-08-21T23:07:38;16.60;99.90
995;DHT22;486;48.726;8.964;2022-08-21T23:10:19;16.60;99.90
995;DHT22;486;48.726;8.964;2022-08-21T23:12:57;16.60;99.90
995;DHT22;486;48.726;8.964;2022-08-21T23:15:34;16.50;99.90